• Join FlightAware (Why Join?)
  • Login
  • US Flag 
12:40PM EDT


 

Airport Tracker/Info


-or-


 

Live Flight TrackerFlight Track Log ✈ DAL18 ✈ 27-Apr-2012 ✈ KDTW - EGLL / LHR

Flight Track Log - Related Links

Times and Time Zones

All times are in EDT time to prevent confusion due to time zone crossing. See the DAL18 flight status page for this flight to view local times or setup timezone preferences in your user account.

Time Position Orientation Groundspeed Altitude Reporting Facility
EDT Latitude Longitude Course Direction KTS MPH feet Rate Location/Type
10:41PM 42.1967 -83.3917 183° South 179 206 1,300  Level Cleveland Center
10:42PM 42.1528 -83.3953 178° South 217 250 2,700 1,800 Climbing Cleveland Center
10:43PM 42.0903 -83.3925 165° South 265 305 4,400 2,340 Climbing Cleveland Center
10:44PM 42.0097 -83.3639 83° East 283 326 7,500 2,520 Climbing Cleveland Center
10:45PM 42.0183 -83.2664 60° Northeast 277 319 9,800 1,800 Climbing Cleveland Center
10:46PM 42.0622 -83.1647 59° Northeast 271 312 11,100 1,260 Climbing Cleveland Center
10:47PM 42.1150 -83.0464 60° Northeast 334 384 12,400 2,040 Climbing Cleveland Center
10:48PM 42.1739 -82.9086 62° Northeast 397 457 15,200 2,340 Climbing Cleveland Center
10:49PM 42.2289 -82.7675 87° East 418 481 17,100 1,560 Climbing Cleveland Center
10:50PM 42.2361 -82.5939 89° East 436 502 18,400 1,680 Climbing Cleveland Center
10:51PM 42.2372 -82.4089 90° East 468 539 20,500 1,980 Climbing Cleveland Center
10:52PM 42.2358 -82.2181 90° East 494 568 22,400 1,560 Climbing Cleveland Center
10:53PM 42.2361 -82.0500 90° East 504 580 23,700 1,380 Climbing Cleveland Center
10:54PM 42.2364 -81.8536 91° East 509 586 25,200 1,620 Climbing Cleveland Center
10:55PM 42.2344 -81.6489 91° East 533 613 27,000 1,740 Climbing Cleveland Center
10:56PM 42.2319 -81.4300 90° East 533 613 28,700 1,500 Climbing Cleveland Center
10:57PM 42.2311 -81.2308 91° East 533 613 30,000 1,140 Climbing Cleveland Center
10:58PM 42.2281 -81.0261 75° East 533 613 31,000 480 Climbing Cleveland Center
10:59PM 42.2639 -80.8414 75° East 521 600 31,000  Level Cleveland Center
11:00PM 42.2997 -80.6561 73° East 516 594 31,000  Level Cleveland Center
11:01PM 42.3414 -80.4736 75° East 508 585 31,000  Level Cleveland Center
11:02PM 42.3786 -80.2881 74° East 508 585 31,000  Level Cleveland Center
11:03PM 42.4133 -80.1219 73° East 508 585 31,000  Level Cleveland Center
11:04PM 42.4583 -79.9161 74° East 513 590 31,000  Level Cleveland Center
11:05PM 42.4967 -79.7300 74° East 513 590 31,000  Level Cleveland Center
11:06PM 42.5369 -79.5433 75° East 513 590 31,000  Level Cleveland Center
11:07PM 42.5744 -79.3511 74° East 513 590 31,000  Level Cleveland Center
11:08PM 42.6142 -79.1642 75° East 513 590 31,000  Level Cleveland Center
11:09PM 42.6472 -78.9939 75° East 513 590 31,000  Level Cleveland Center
11:10PM 42.6842 -78.8011 75° East 518 596 31,000  Level Cleveland Center
11:11PM 42.7225 -78.6078 75° East 518 596 31,000  Level Cleveland Center
11:12PM 42.7589 -78.4169 76° East 518 596 31,000  Level Cleveland Center
11:13PM 42.7947 -78.2233 76° East 518 596 31,000  Level Cleveland Center
11:14PM 42.8339 -78.0094 75° East 518 596 31,000  Level Cleveland Center
11:15PM 42.8731 -77.8153 76° East 518 596 31,000  Level Cleveland Center
11:16PM 42.9081 -77.6239 76° East 523 602 31,000  Level Cleveland Center
11:18PM 42.9603 -77.3294 75° East 505 581 31,000  Level Boston Center
11:19PM 42.9975 -77.1392 76° East 511 588 31,000  Level Boston Center
11:20PM 43.0325 -76.9458 76° East 517 595 31,000  Level Boston Center
11:21PM 43.0669 -76.7522 77° East 523 602 31,000  Level Boston Center
11:22PM 43.0992 -76.5608 76° East 528 608 31,000  Level Boston Center
11:23PM 43.1331 -76.3669 74° East 528 608 31,000  Level Boston Center
11:24PM 43.1728 -76.1786 62° Northeast 523 602 31,000  Level Boston Center
11:25PM 43.2364 -76.0114 61° Northeast 505 581 31,000  Level Boston Center
11:26PM 43.3019 -75.8497 61° Northeast 492 566 31,000  Level Boston Center
11:27PM 43.3672 -75.6847 60° Northeast 487 560 31,000  Level Boston Center
11:28PM 43.4342 -75.5225 62° Northeast 481 554 31,000  Level Boston Center
11:29PM 43.4969 -75.3567 62° Northeast 487 560 31,000  Level Boston Center
11:30PM 43.5617 -75.1881 63° Northeast 487 560 31,000  Level Boston Center
11:31PM 43.6239 -75.0217 61° Northeast 487 560 31,000  Level Boston Center
11:32PM 43.6900 -74.8550 62° Northeast 487 560 31,000  Level Boston Center
11:33PM 43.7539 -74.6850 63° Northeast 487 560 31,000  Level Boston Center
11:34PM 43.8153 -74.5175 62° Northeast 487 560 31,000  Level Boston Center
11:35PM 43.8786 -74.3525 62° Northeast 487 560 31,000  Level Boston Center
11:36PM 43.9417 -74.1844 64° Northeast 487 560 31,000  Level Boston Center
11:37PM 44.0069 -74.0017 63° Northeast 482 555 31,000  Level Boston Center
11:38PM 44.0675 -73.8356 63° Northeast 487 560 31,000  Level Boston Center
11:39PM 44.1297 -73.6664 63° Northeast 487 560 31,000  Level Boston Center
11:40PM 44.1897 -73.4997 63° Northeast 487 560 31,000  Level Boston Center
11:41PM 44.2494 -73.3356 64° Northeast 482 555 31,000  Level Boston Center
11:42PM 44.3092 -73.1653 62° Northeast 482 555 31,000  Level Boston Center
11:43PM 44.3661 -73.0122 64° Northeast 482 555 31,000  Level Boston Center
11:44PM 44.4253 -72.8411 64° Northeast 487 560 31,000  Level Boston Center
11:45PM 44.4839 -72.6728 63° Northeast 482 555 31,000  Level Boston Center
11:46PM 44.5531 -72.4839 64° Northeast 489 563 31,000  Level Boston Center
11:47PM 44.6114 -72.3119 63° Northeast 489 563 31,000  Level Boston Center
11:48PM 44.6733 -72.1394 65° Northeast 489 563 31,000  Level Boston Center
11:49PM 44.7292 -71.9697 64° Northeast 484 557 31,000  Level Boston Center
11:50PM 44.7886 -71.7967 64° Northeast 484 557 31,000  Level Boston Center
11:51PM 44.8481 -71.6261 65° Northeast 484 557 31,000  Level Boston Center
11:52PM 44.9031 -71.4583 65° Northeast 484 557 31,000  Level Boston Center
11:53PM 44.9597 -71.2872 64° Northeast 479 551 31,000  Level Boston Center
11:54PM 45.0061 -71.1514 65° Northeast 474 545 31,000  Level Boston Center
11:55PM 45.0664 -70.9647 65° Northeast 474 545 31,000  Level Boston Center
11:56PM 45.1225 -70.7928 65° Northeast 474 545 31,000  Level Boston Center
11:57PM 45.1803 -70.6203 65° Northeast 474 545 31,000  Level Boston Center
11:58PM 45.2358 -70.4506 66° East 474 545 31,000  Level Boston Center
11:59PM 45.2911 -70.2747 65° Northeast 474 545 31,000  Level Boston Center
12:00AM 45.3481 -70.1011 66° East 474 545 31,000  Level Boston Center
12:01AM 45.4028 -69.9244 65° Northeast 479 551 31,000  Level Boston Center
12:02AM 45.4592 -69.7506 66° East 479 551 31,000  Level Boston Center
12:03AM 45.5192 -69.5581 66° East 479 551 31,000  Level Boston Center
12:04AM 45.5731 -69.3833 66° East 484 557 31,000  Level Boston Center
12:05AM 45.6306 -69.2022 67° East 484 557 31,000  Level Boston Center
12:06AM 45.6819 -69.0300 66° East 484 557 31,000  Level Boston Center
12:07AM 45.7369 -68.8511 67° East 484 557 31,000  Level Boston Center
12:08AM 45.7878 -68.6753 67° East 484 557 31,000 -60 Level Boston Center
12:09AM 45.8403 -68.4989 66° East 484 557 30,900  Descending Boston Center
12:10AM 45.8947 -68.3250 68° East 484 557 31,000  Climbing Boston Center
12:11AM 45.9444 -68.1483 65° Northeast 479 551 31,000  Level Boston Center
12:12AM 45.9950 -67.9919 64° Northeast 479 551 31,000 -60 Level Boston Center
12:13AM 46.0528 -67.8200 55° Northeast 479 551 30,900 -60 Descending Boston Center
12:14AM 46.1356 -67.6514 51° Northeast 469 540 30,900  Level Boston Center
12:15AM 46.2208 -67.5000 50° Northeast 469 540 31,000  Climbing Boston Center
12:16AM 46.3044 -67.3544 58° Northeast 469 540 30,900  Descending Boston Center
12:17AM 46.4000 -67.1333 48° Northeast 470 541 31,000  Climbing Moncton Center
12:18AM 46.4833 -67.0000 57° Northeast 480 552 31,000  Level Moncton Center
12:19AM 46.5500 -66.8500 54° Northeast 470 541 31,000  Level Moncton Center
12:20AM 46.6333 -66.6833 42° Northeast 470 541 31,000  Level Moncton Center
12:21AM 46.7333 -66.5500 57° Northeast 470 541 31,000  Level Moncton Center
12:22AM 46.8000 -66.4000 54° Northeast 470 541 31,000  Level Moncton Center
12:23AM 46.8833 -66.2333 51° Northeast 470 541 31,000  Level Moncton Center
12:24AM 46.9667 -66.0833 54° Northeast 470 541 31,000  Level Moncton Center
12:25AM 47.0333 -65.9500 56° Northeast 470 541 31,000  Level Moncton Center
12:26AM 47.1167 -65.7667 47° Northeast 470 541 31,000  Level Moncton Center
12:27AM 47.2000 -65.6333 51° Northeast 470 541 31,000  Level Moncton Center
12:28AM 47.2833 -65.4833 54° Northeast 470 541 31,000  Level Moncton Center
12:29AM 47.3667 -65.3167 62° Northeast 480 552 31,000  Level Moncton Center
12:30AM 47.4333 -65.1333 47° Northeast 480 552 31,000  Level Moncton Center
12:31AM 47.5167 -65.0000 56° Northeast 480 552 31,000  Level Moncton Center
12:32AM 47.6000 -64.8167 50° Northeast 490 564 31,000  Level Moncton Center
12:33AM 47.6833 -64.6667 53° Northeast 490 564 31,000  Level Moncton Center
12:34AM 47.7667 -64.5000 56° Northeast 490 564 31,000  Level Moncton Center
12:35AM 47.8333 -64.3500 53° Northeast 490 564 31,000  Level Moncton Center
12:36AM 47.9000 -64.2167 53° Northeast 490 564 31,000  Level Gander Center
12:37AM 47.9667 -64.0833 56° Northeast 490 564 31,000  Level Gander Center
12:38AM 48.0500 -63.9000 59° Northeast 490 564 31,000  Level Gander Center
12:39AM 48.1167 -63.7333 53° Northeast 490 564 31,000  Level Gander Center
12:40AM 48.2000 -63.5667 45° Northeast 480 552 31,000  Level Gander Center
12:41AM 48.3000 -63.4167 59° Northeast 490 564 31,000  Level Gander Center
12:42AM 48.3667 -63.2500 61° Northeast 490 564 31,000  Level Gander Center
12:43AM 48.4333 -63.0667 53° Northeast 480 552 31,000  Level Gander Center
12:44AM 48.5167 -62.9000 55° Northeast 490 564 31,000  Level Gander Center
12:45AM 48.6000 -62.7167 56° Northeast 490 564 31,000  Level Gander Center
12:46AM 48.6667 -62.5667 48° Northeast 480 552 31,000  Level Gander Center
12:47AM 48.7667 -62.4000 61° Northeast 490 564 31,000  Level Gander Center
12:48AM 48.8333 -62.2167 56° Northeast 500 575 31,000  Level Gander Center
12:49AM 48.9000 -62.0667 58° Northeast 480 552 31,000  Level Gander Center
12:50AM 48.9833 -61.8667 50° Northeast 490 564 31,000  Level Gander Center
12:51AM 49.0667 -61.7167 44° Northeast 490 564 31,000  Level Gander Center
12:52AM 49.1667 -61.5667 44° Northeast 500 575 31,000  Level Gander Center
12:53AM 49.2667 -61.4167 52° Northeast 500 575 31,000  Level Gander Center
12:54AM 49.3500 -61.2500 40° Northeast 500 575 31,000  Level Gander Center
12:55AM 49.4667 -61.1000 46° Northeast 500 575 31,000  Level Gander Center
12:56AM 49.5500 -60.9667 45° Northeast 510 587 31,000  Level Gander Center
12:57AM 49.6667 -60.7833 37° Northeast 510 587 31,000  Level Gander Center
12:58AM 49.7667 -60.6667 47° Northeast 500 575 31,000  Level Gander Center
12:59AM 49.8667 -60.5000 44° Northeast 510 587 31,000  Level Gander Center
01:00AM 49.9667 -60.3500 47° Northeast 510 587 31,000  Level Gander Center
01:01AM 50.0667 -60.1833 44° Northeast 510 587 31,000  Level Gander Center
01:02AM 50.1667 -60.0333 47° Northeast 510 587 31,000  Level Gander Center
01:03AM 50.2667 -59.8667 39° Northeast 510 587 31,000  Level Gander Center
01:04AM 50.3833 -59.7167 55° Northeast 510 587 31,000  Level Gander Center
01:05AM 50.4500 -59.5667 44° Northeast 510 587 31,000  Level Gander Center
01:06AM 50.5500 -59.4167 47° Northeast 500 575 31,000  Level Gander Center
01:07AM 50.6500 -59.2500 49° Northeast 500 575 31,000 600 Level Gander Center
01:08AM 50.7500 -59.0667 52° Northeast 500 575 32,300 1,140 Climbing Gander Center
01:09AM 50.8333 -58.9000 52° Northeast 500 575 33,300 840 Climbing Gander Center
01:10AM 50.9167 -58.7333 54° Northeast 500 575 34,000 300 Climbing Gander Center
01:11AM 51.0000 -58.5500 51° Northeast 500 575 34,000  Level Gander Center
01:12AM 51.0833 -58.3833 46° Northeast 500 575 34,000  Level Gander Center
01:13AM 51.1833 -58.2167 56° Northeast 490 564 34,000  Level Gander Center
01:14AM 51.2667 -58.0167 51° Northeast 500 575 34,000  Level Gander Center
01:15AM 51.3500 -57.8500 51° Northeast 500 575 34,000  Level Gander Center
01:16AM 51.4333 -57.6833 51° Northeast 500 575 34,000  Level Gander Center
01:17AM 51.5333 -57.4833 57° Northeast 510 587 34,000  Level Gander Center
01:18AM 51.6000 -57.3167 49° Northeast 510 587 34,000  Level Gander Center
01:19AM 51.7000 -57.1333 54° Northeast 510 587 34,000  Level Gander Center
01:20AM 51.7833 -56.9500 56° Northeast 510 587 34,000  Level Gander Center
01:21AM 51.8667 -56.7500 51° Northeast 510 587 34,000  Level Gander Center
01:22AM 51.9500 -56.5833 56° Northeast 520 598 34,000  Level Gander Center
01:23AM 52.0333 -56.3833 51° Northeast 520 598 34,000  Level Gander Center
01:24AM 52.1167 -56.2167 51° Northeast 520 598 34,000  Level Gander Center
01:25AM 52.2167 -56.0167 56° Northeast 520 598 34,000  Level Gander Center
01:26AM 52.3000 -55.8167 53° Northeast 520 598 34,000  Level Gander Center
01:27AM 52.3833 -55.6333 56° Northeast 530 610 34,000  Level Gander Center
01:28AM 52.4667 -55.4333 56° Northeast 530 610 34,000  Level Gander Center
01:29AM 52.5500 -55.2333 53° Northeast 530 610 34,000  Level Gander Center
01:30AM 52.6333 -55.0500 55° Northeast 530 610 34,000  Level Gander Center
01:31AM 52.7167 -54.8500 48° Northeast 530 610 34,000  Level Gander Center
01:32AM 52.8167 -54.6667 61° Northeast 520 598 34,000  Level Gander Center
01:33AM 52.8833 -54.4667 53° Northeast 520 598 34,000  Level Gander Center
01:34AM 52.9667 -54.2833 57° Northeast 520 598 34,000  Level Gander Center
01:35AM 53.0500 -54.0667 61° Northeast 510 587 34,000  Level Gander Center
01:36AM 53.1167 -53.8667 69° East 510 587 34,000  Level Gander Center
01:37AM 53.1667 -53.6500 70° East 500 575 34,000  Level Gander Center
01:38AM 53.2167 -53.4167 61° Northeast 500 575 34,000  Level Gander Center
01:39AM 53.2833 -53.2167 70° East 510 587 34,000  Level Gander Center
01:40AM 53.3333 -52.9833 67° East 510 587 34,000  Level Gander Center
01:41AM 53.3833 -52.7833 71° East 510 587 34,000  Level Gander Center
01:42AM 53.4333 -52.5333 67° East 510 587 34,000  Level Gander Center
01:43AM 53.4833 -52.3333 70° East 510 587 34,000  Level Gander Center
01:44AM 53.5333 -52.1000 69° East 510 587 34,000  Level Gander Center
01:45AM 53.5833 -51.8833 67° East 510 587 34,000  Level Gander Center
01:46AM 53.6333 -51.6833 71° East 510 587 34,000  Level Gander Center
01:47AM 53.6833 -51.4333 67° East 510 587 34,000  Level Gander Center
01:48AM 53.7333 -51.2333 76° East 500 575 34,000  Level Gander Center
01:49AM 53.7667 -51.0000 69° East 500 575 34,000  Level Gander Center
01:50AM 53.8167 -50.7833 62° Northeast 500 575 34,000  Level Gander Center
01:51AM 53.8833 -50.5667 77° East 510 587 34,000  Level Gander Center
01:52AM 53.9167 -50.3167 75° East 510 587 34,000 360 Level Gander Center
01:55AM 54.0000 -49.7833 75° East 270 311 35,500 -60 Climbing Gander Center
02:02AM 54.2323 -48.2305 77° East  Level FlightAware Approximate
02:03AM 54.2603 -48.0130 77° East  Level FlightAware Approximate
02:04AM 54.2879 -47.7951 77° East  Level FlightAware Approximate
02:05AM 54.3150 -47.5769 77° East  Level FlightAware Approximate
02:06AM 54.3418 -47.3585 77° East  Level FlightAware Approximate
02:07AM 54.3682 -47.1397 78° East  Level FlightAware Approximate
02:08AM 54.3942 -46.9207 78° East  Level FlightAware Approximate
02:09AM 54.4198 -46.7015 78° East  Level FlightAware Approximate
02:10AM 54.4450 -46.4819 78° East  Level FlightAware Approximate
02:11AM 54.4698 -46.2621 78° East  Level FlightAware Approximate
02:12AM 54.4964 -46.0428 78° East  Level FlightAware Approximate
02:13AM 54.5318 -45.8271 79° East  Level FlightAware Approximate
02:14AM 54.5669 -45.6109 79° East  Level FlightAware Approximate
02:15AM 54.6015 -45.3944 79° East  Level FlightAware Approximate
02:16AM 54.6358 -45.1775 79° East  Level FlightAware Approximate
02:17AM 54.6697 -44.9603 79° East  Level FlightAware Approximate
02:18AM 54.7032 -44.7427 80° East  Level FlightAware Approximate
02:19AM 54.7363 -44.5247 80° East  Level FlightAware Approximate
02:20AM 54.7690 -44.3064 80° East  Level FlightAware Approximate
02:21AM 54.8013 -44.0877 80° East  Level FlightAware Approximate
02:22AM 54.8332 -43.8687 80° East  Level FlightAware Approximate
02:23AM 54.8648 -43.6494 81° East  Level FlightAware Approximate
02:24AM 54.8959 -43.4297 81° East  Level FlightAware Approximate
02:25AM 54.9267 -43.2096 81° East  Level FlightAware Approximate
02:26AM 54.9570 -42.9893 81° East  Level FlightAware Approximate
02:27AM 54.9869 -42.7686 81° East  Level FlightAware Approximate
02:28AM 55.0165 -42.5475 82° East  Level FlightAware Approximate
02:29AM 55.0456 -42.3262 82° East  Level FlightAware Approximate
02:30AM 55.0743 -42.1045 82° East  Level FlightAware Approximate
02:31AM 55.1027 -41.8825 82° East  Level FlightAware Approximate
02:32AM 55.1306 -41.6602 82° East  Level FlightAware Approximate
02:33AM 55.1581 -41.4376 83° East  Level FlightAware Approximate
02:34AM 55.1853 -41.2147 83° East  Level FlightAware Approximate
02:35AM 55.2120 -40.9915 83° East  Level FlightAware Approximate
02:36AM 55.2383 -40.7680 83° East  Level FlightAware Approximate
02:37AM 55.2642 -40.5442 84° East  Level FlightAware Approximate
02:38AM 55.2897 -40.3201 84° East  Level FlightAware Approximate
02:39AM 55.3052 -40.0931 84° East  Level FlightAware Approximate
02:40AM 55.3203 -39.8659 84° East  Level FlightAware Approximate
02:41AM 55.3350 -39.6385 84° East  Level FlightAware Approximate
02:42AM 55.3493 -39.4110 85° East  Level FlightAware Approximate
02:43AM 55.3632 -39.1833 85° East  Level FlightAware Approximate
02:44AM 55.3766 -38.9555 85° East  Level FlightAware Approximate
02:45AM 55.3896 -38.7275 85° East  Level FlightAware Approximate
02:46AM 55.4022 -38.4994 85° East  Level FlightAware Approximate
02:47AM 55.4144 -38.2711 85° East  Level FlightAware Approximate
02:48AM 55.4261 -38.0427 86° East  Level FlightAware Approximate
02:49AM 55.4374 -37.8141 86° East  Level FlightAware Approximate
02:50AM 55.4483 -37.5854 86° East  Level FlightAware Approximate
02:51AM 55.4587 -37.3567 86° East  Level FlightAware Approximate
02:52AM 55.4688 -37.1277 86° East  Level FlightAware Approximate
02:53AM 55.4784 -36.8987 87° East  Level FlightAware Approximate
02:54AM 55.4875 -36.6696 87° East  Level FlightAware Approximate
02:55AM 55.4963 -36.4403 87° East  Level FlightAware Approximate
02:56AM 55.5046 -36.2110 87° East  Level FlightAware Approximate
02:57AM 55.5125 -35.9815 87° East  Level FlightAware Approximate
02:58AM 55.5200 -35.7520 88° East  Level FlightAware Approximate
02:59AM 55.5270 -35.5224 88° East  Level FlightAware Approximate
03:00AM 55.5336 -35.2927 88° East  Level FlightAware Approximate
03:01AM 55.5398 -35.0629 88° East  Level FlightAware Approximate
03:02AM 55.5455 -34.8331 88° East  Level FlightAware Approximate
03:03AM 55.5508 -34.6032 89° East  Level FlightAware Approximate
03:04AM 55.5557 -34.3732 89° East  Level FlightAware Approximate
03:05AM 55.5602 -34.1432 89° East  Level FlightAware Approximate
03:06AM 55.5642 -33.9131 89° East  Level FlightAware Approximate
03:07AM 55.5678 -33.6830 89° East  Level FlightAware Approximate
03:08AM 55.5709 -33.4529 90° East  Level FlightAware Approximate
03:09AM 55.5737 -33.2227 90° East  Level FlightAware Approximate
03:10AM 55.5760 -32.9925 90° East  Level FlightAware Approximate
03:11AM 55.5778 -32.7622 90° East  Level FlightAware Approximate
03:12AM 55.5792 -32.5320 90° East  Level FlightAware Approximate
03:13AM 55.5802 -32.3017 91° East  Level FlightAware Approximate
03:14AM 55.5808 -32.0714 91° East  Level FlightAware Approximate
03:15AM 55.5810 -31.8411 91° East  Level FlightAware Approximate
03:16AM 55.5807 -31.6108 91° East  Level FlightAware Approximate
03:17AM 55.5799 -31.3806 91° East  Level FlightAware Approximate
03:18AM 55.5788 -31.1503 92° East  Level FlightAware Approximate
03:19AM 55.5772 -30.9200 92° East  Level FlightAware Approximate
03:20AM 55.5752 -30.6898 92° East  Level FlightAware Approximate
03:21AM 55.5727 -30.4596 92° East  Level FlightAware Approximate
03:22AM 55.5679 -30.2295 92° East  Level FlightAware Approximate
03:23AM 55.5627 -29.9995 92° East  Level FlightAware Approximate
03:24AM 55.5571 -29.7696 93° East  Level FlightAware Approximate
03:25AM 55.5510 -29.5397 93° East  Level FlightAware Approximate
03:26AM 55.5445 -29.3099 93° East  Level FlightAware Approximate
03:27AM 55.5376 -29.0801 93° East  Level FlightAware Approximate
03:28AM 55.5302 -28.8505 93° East  Level FlightAware Approximate
03:29AM 55.5224 -28.6209 94° East  Level FlightAware Approximate
03:30AM 55.5142 -28.3915 94° East  Level FlightAware Approximate
03:31AM 55.5056 -28.1621 94° East  Level FlightAware Approximate
03:32AM 55.4965 -27.9328 94° East  Level FlightAware Approximate
03:33AM 55.4870 -27.7037 94° East  Level FlightAware Approximate
03:34AM 55.4771 -27.4747 95° East  Level FlightAware Approximate
03:35AM 55.4667 -27.2457 95° East  Level FlightAware Approximate
03:36AM 55.4559 -27.0169 95° East  Level FlightAware Approximate
03:37AM 55.4447 -26.7883 95° East  Level FlightAware Approximate
03:38AM 55.4331 -26.5597 95° East  Level FlightAware Approximate
03:39AM 55.4210 -26.3313 96° East  Level FlightAware Approximate
03:40AM 55.4085 -26.1031 96° East  Level FlightAware Approximate
03:41AM 55.3956 -25.8750 96° East  Level FlightAware Approximate
03:42AM 55.3823 -25.6470 96° East  Level FlightAware Approximate
03:43AM 55.3685 -25.4192 96° East  Level FlightAware Approximate
03:44AM 55.3544 -25.1915 96° East  Level FlightAware Approximate
03:45AM 55.3397 -24.9641 97° East  Level FlightAware Approximate
03:46AM 55.3247 -24.7367 97° East  Level FlightAware Approximate
03:47AM 55.3093 -24.5096 97° East  Level FlightAware Approximate
03:48AM 55.2934 -24.2826 97° East  Level FlightAware Approximate
03:49AM 55.2771 -24.0559 97° East  Level FlightAware Approximate
03:50AM 55.2604 -23.8293 98° East  Level FlightAware Approximate
03:51AM 55.2433 -23.6029 98° East  Level FlightAware Approximate
03:52AM 55.2257 -23.3767 98° East  Level FlightAware Approximate
03:53AM 55.2077 -23.1507 98° East  Level FlightAware Approximate
03:54AM 55.1894 -22.9249 98° East  Level FlightAware Approximate
03:55AM 55.1706 -22.6994 99° East  Level FlightAware Approximate
03:56AM 55.1513 -22.4740 99° East  Level FlightAware Approximate
03:57AM 55.1317 -22.2489 99° East  Level FlightAware Approximate
03:58AM 55.1117 -22.0240 99° East  Level FlightAware Approximate
03:59AM 55.0922 -21.8104 99° East  Level FlightAware Approximate
04:00AM 55.0724 -21.5971 99° East  Level FlightAware Approximate
04:01AM 55.0522 -21.3840 100° East  Level FlightAware Approximate
04:02AM 55.0317 -21.1712 100° East  Level FlightAware Approximate
04:03AM 55.0108 -20.9585 100° East  Level FlightAware Approximate
04:04AM 54.9895 -20.7461 100° East  Level FlightAware Approximate
04:05AM 54.9678 -20.5338 100° East  Level FlightAware Approximate
04:06AM 54.9458 -20.3219 101° East  Level FlightAware Approximate
04:07AM 54.9234 -20.1101 101° East  Level FlightAware Approximate
04:08AM 54.8997 -19.8989 101° East  Level FlightAware Approximate
04:09AM 54.8756 -19.6880 101° East  Level FlightAware Approximate
04:10AM 54.8512 -19.4773 101° East  Level FlightAware Approximate
04:11AM 54.8264 -19.2669 101° East  Level FlightAware Approximate
04:12AM 54.8012 -19.0567 102° East  Level FlightAware Approximate
04:13AM 54.7757 -18.8468 102° East  Level FlightAware Approximate
04:14AM 54.7498 -18.6372 102° East  Level FlightAware Approximate
04:15AM 54.7235 -18.4278 102° East  Level FlightAware Approximate
04:16AM 54.6969 -18.2187 102° East  Level FlightAware Approximate
04:17AM 54.6700 -18.0099 102° East  Level FlightAware Approximate
04:18AM 54.6426 -17.8013 103° East  Level FlightAware Approximate
04:19AM 54.6149 -17.5931 103° East  Level FlightAware Approximate
04:20AM 54.5869 -17.3851 103° East  Level FlightAware Approximate
04:21AM 54.5585 -17.1774 103° East  Level FlightAware Approximate
04:22AM 54.5789 -16.9701 104° East  Level FlightAware Approximate
04:23AM 54.5482 -16.7634 104° East  Level FlightAware Approximate
04:24AM 54.5171 -16.5571 104° East  Level FlightAware Approximate
04:25AM 54.4856 -16.3511 104° East  Level FlightAware Approximate
04:26AM 54.4538 -16.1454 104° East  Level FlightAware Approximate
04:27AM 54.4216 -15.9401 104° East  Level FlightAware Approximate
04:28AM 54.3891 -15.7350 104° East  Level FlightAware Approximate
04:29AM 54.3562 -15.5303 105° East  Level FlightAware Approximate
04:30AM 54.3230 -15.3259 105° East  Level FlightAware Approximate
04:31AM 54.2895 -15.1219 105° East  Level FlightAware Approximate
04:32AM 54.2556 -14.9181 105° East  Level FlightAware Approximate
04:33AM 54.2213 -14.7148 105° East  Level FlightAware Approximate
04:34AM 54.1867 -14.5117 105° East  Level FlightAware Approximate
04:35AM 54.1518 -14.3090 105° East  Level FlightAware Approximate
04:36AM 54.1166 -14.1067 106° East  Level FlightAware Approximate
04:37AM 54.0888 -13.9018 106° East  Level FlightAware Approximate
04:38AM 54.0528 -13.7002 106° East  Level FlightAware Approximate
04:39AM 54.0161 -13.4991 106° East  Level FlightAware Approximate
04:40AM 53.9790 -13.2983 106° East  Level FlightAware Approximate
04:41AM 53.9417 -13.0979 106° East  Level FlightAware Approximate
04:42AM 53.9040 -12.8978 107° East  Level FlightAware Approximate
04:43AM 53.8659 -12.6981 107° East  Level FlightAware Approximate
04:44AM 53.8276 -12.4988 107° East  Level FlightAware Approximate
04:45AM 53.7889 -12.2998 107° East  Level FlightAware Approximate
04:46AM 53.7499 -12.1012 107° East  Level FlightAware Approximate
04:47AM 53.7105 -11.9030 107° East  Level FlightAware Approximate
04:48AM 53.6708 -11.7051 107° East  Level FlightAware Approximate
04:49AM 53.6256 -11.5114 107° East  Level FlightAware Approximate
04:50AM 53.5919 -11.3108 108° East  Level FlightAware Approximate
04:51AM 53.5579 -11.1105 108° East  Level FlightAware Approximate
04:52AM 53.5235 -10.9105 108° East  Level FlightAware Approximate
04:53AM 53.4888 -10.7109 108° East  Level FlightAware Approximate
04:54AM 53.4538 -10.5116 108° East  Level FlightAware Approximate
04:55AM 53.4184 -10.3126 109° East  Level FlightAware Approximate
04:56AM 53.3828 -10.1140 109° East  Level FlightAware Approximate
04:57AM 53.3467 -9.9157 109° East  Level FlightAware Approximate
04:58AM 53.3104 -9.7177 109° East  Level FlightAware Approximate
04:59AM 53.2737 -9.5201 109° East  Level FlightAware Approximate
05:00AM 53.2367 -9.3228 110° East  Level FlightAware Approximate
05:01AM 53.1994 -9.1258 110° East  Level FlightAware Approximate
05:02AM 53.1618 -8.9292 110° East  Level FlightAware Approximate
05:03AM 53.1238 -8.7330 110° East  Level FlightAware Approximate
05:04AM 53.0855 -8.5371 111° Southeast  Level FlightAware Approximate
05:05AM 53.0469 -8.3415 111° Southeast  Level FlightAware Approximate
05:06AM 53.0079 -8.1463 111° Southeast  Level FlightAware Approximate
05:07AM 52.9687 -7.9514 111° Southeast  Level FlightAware Approximate
05:08AM 52.9291 -7.7569 112° Southeast  Level FlightAware Approximate
05:09AM 52.8892 -7.5628 112° Southeast  Level FlightAware Approximate
05:10AM 52.8490 -7.3690 112° Southeast  Level FlightAware Approximate
05:11AM 52.8085 -7.1755 113° Southeast  Level FlightAware Approximate
05:12AM 52.7747 -6.9788 113° Southeast  Level FlightAware Approximate
05:13AM 52.7406 -6.7823 113° Southeast  Level FlightAware Approximate
05:14AM 52.7061 -6.5862 114° Southeast  Level FlightAware Approximate
05:15AM 52.6714 -6.3904 115° Southeast  Level FlightAware Approximate
05:16AM 52.6363 -6.1948 115° Southeast  Level FlightAware Approximate
05:17AM 52.6008 -5.9996 116° Southeast  Level FlightAware Approximate
05:18AM 52.5651 -5.8047 117° Southeast  Level FlightAware Approximate
05:19AM 52.5293 -5.6101 117° Southeast  Level FlightAware Approximate
05:20AM 52.4931 -5.4157 118° Southeast  Level FlightAware Approximate
05:21AM 52.4574 -5.2213 119° Southeast  Level FlightAware Approximate
05:22AM 52.4213 -5.0272 121° Southeast  Level FlightAware Approximate
05:23AM 52.3849 -4.8334 122° Southeast  Level FlightAware Approximate
05:24AM 52.3483 -4.6400 124° Southeast  Level FlightAware Approximate
05:25AM 52.3112 -4.4468 126° Southeast  Level FlightAware Approximate
05:31AM 51.6747 -3.0477 111° Southeast 443 510 26,100  Level FlightAware ADS-B
05:31AM 51.6451 -2.9247 111° Southeast 439 505 25,500 -960 Descending FlightAware ADS-B
05:32AM 51.6228 -2.8315 111° Southeast 436 502 25,000 -960 Descending FlightAware ADS-B
05:32AM 51.5990 -2.7319 111° Southeast 436 502 24,500 -1,020 Descending FlightAware ADS-B
05:33AM 51.5757 -2.6361 111° Southeast 435 501 23,900 -960 Descending FlightAware ADS-B
05:34AM 51.5527 -2.5413 112° Southeast 434 499 23,500 -840 Descending FlightAware ADS-B
05:34AM 51.5281 -2.4416 111° Southeast 431 496 23,000 -1,140 Descending FlightAware ADS-B
05:35AM 51.5074 -2.3561 111° Southeast 401 461 22,300 -1,260 Descending FlightAware ADS-B
05:35AM 51.4857 -2.2662 112° Southeast 384 442 21,700 -1,440 Descending FlightAware ADS-B
05:36AM 51.4657 -2.1858 107° East 374 430 20,800 -1,800 Descending FlightAware ADS-B
05:36AM 51.4606 -2.1597 102° East 380 437 20,500 -2,760 Descending FlightAware ADS-B
05:36AM 51.4553 -2.1203 105° East 383 441 19,700 -2,280 Descending FlightAware ADS-B
05:37AM 51.4417 -2.0378 107° East 376 433 18,800 -1,800 Descending FlightAware ADS-B
05:37AM 51.4263 -1.9589 108° East 371 427 17,900 -1,800 Descending FlightAware ADS-B
05:37AM 51.4159 -1.9069 109° East 369 425 17,300 -1,800 Descending FlightAware ADS-B
05:38AM 51.3995 -1.8288 109° East 365 420 16,400 -1,740 Descending FlightAware ADS-B
05:38AM 51.3833 -1.7548 110° East 342 394 15,600 -1,620 Descending FlightAware ADS-B
05:39AM 51.3675 -1.6846 110° East 335 386 14,800 -1,560 Descending FlightAware ADS-B
05:39AM 51.3503 -1.6103 109° East 330 380 14,000 -1,200 Descending FlightAware ADS-B
05:40AM 51.3456 -1.5881 102° East 329 379 14,000  Level FlightAware ADS-B
05:40AM 51.3433 -1.5710 99° East 330 380 14,000  Level FlightAware ADS-B
05:40AM 51.3396 -1.5350 95° East 328 377 14,000  Level FlightAware ADS-B
05:40AM 51.3377 -1.5021 91° East 319 367 14,000  Level FlightAware ADS-B
05:41AM 51.3366 -1.4336 91° East 294 338 14,000 -120 Level FlightAware ADS-B
05:41AM 51.3359 -1.3702 91° East 275 316 13,900 -480 Descending FlightAware ADS-B
05:42AM 51.3353 -1.3283 90° East 270 311 13,600 -840 Descending FlightAware ADS-B
05:42AM 51.3352 -1.2692 91° East 266 306 13,200 -600 Descending FlightAware ADS-B
05:43AM 51.3346 -1.2086 90° East 267 307 13,000 -300 Descending FlightAware ADS-B
05:43AM 51.3346 -1.1889 91° East 268 308 13,000  Level FlightAware ADS-B
05:43AM 51.3341 -1.1217 91° East 268 308 13,000 -420 Level FlightAware ADS-B
05:44AM 51.3336 -1.0619 91° East 269 310 12,600 -840 Descending FlightAware ADS-B
05:44AM 51.3331 -1.0029 91° East 263 303 12,200 -600 Descending FlightAware ADS-B
05:45AM 51.3324 -0.9443 91° East 261 300 12,000 -240 Descending FlightAware ADS-B
05:45AM 51.3319 -0.8842 91° East 264 304 12,000 -540 Level FlightAware ADS-B
05:46AM 51.3312 -0.8251 91° East 268 308 11,500 -1,020 Descending FlightAware ADS-B
05:46AM 51.3307 -0.7649 91° East 265 305 11,000 -540 Descending FlightAware ADS-B
05:47AM 51.3300 -0.7065 91° East 259 298 11,000 -240 Level FlightAware ADS-B
05:47AM 51.3295 -0.6610 92° East 262 302 10,800 -720 Descending FlightAware ADS-B
05:47AM 51.3291 -0.6411 91° East 262 302 10,600 -1,080 Descending FlightAware ADS-B
05:48AM 51.3286 -0.5826 91° East 259 298 10,100 -960 Descending FlightAware ADS-B
05:48AM 51.3283 -0.5538 91° East 257 296 9,900 -1,020 Descending FlightAware ADS-B
05:48AM 51.3279 -0.5237 92° East 255 293 9,600 -1,020 Descending FlightAware ADS-B
05:49AM 51.3276 -0.5084 95° East 254 292 9,500 -780 Descending FlightAware ADS-B
05:49AM 51.3269 -0.4945 95° East 253 291 9,400 -900 Descending FlightAware ADS-B
05:49AM 51.3257 -0.4722 92° East 252 290 9,200 -900 Descending FlightAware ADS-B
05:49AM 51.3250 -0.4439 92° East 248 285 9,000 -420 Descending FlightAware ADS-B
05:49AM 51.3243 -0.4158 92° East 241 277 9,000  Level FlightAware ADS-B
05:50AM 51.3237 -0.3909 99° East 239 275 9,000  Level FlightAware ADS-B
05:50AM 51.3228 -0.3816 107° East 240 276 9,000  Level FlightAware ADS-B
05:50AM 51.3217 -0.3760 117° Southeast 240 276 9,000  Level FlightAware ADS-B
05:50AM 51.3184 -0.3658 128° Southeast 238 274 9,000  Level FlightAware ADS-B
05:50AM 51.3158 -0.3604 134° Southeast 238 274 9,000  Level FlightAware ADS-B
05:50AM 51.3122 -0.3545 143° Southeast 239 275 9,000  Level FlightAware ADS-B
05:50AM 51.3062 -0.3473 152° Southeast 240 276 9,000  Level FlightAware ADS-B
05:50AM 51.3032 -0.3447 159° South 241 277 9,000  Level FlightAware ADS-B
05:50AM 51.2959 -0.3402 176° South 243 280 9,000  Level FlightAware ADS-B
05:51AM 51.2825 -0.3385 193° South 247 284 9,000  Level FlightAware ADS-B
05:51AM 51.2748 -0.3413 201° Southwest 250 288 9,000  Level FlightAware ADS-B
05:51AM 51.2714 -0.3434 208° Southwest 252 290 9,000  Level FlightAware ADS-B
05:51AM 51.2672 -0.3470 215° Southwest 255 293 9,000  Level FlightAware ADS-B
05:51AM 51.2625 -0.3522 222° Southwest 259 298 9,000  Level FlightAware ADS-B
05:51AM 51.2595 -0.3565 232° Southwest 261 300 9,000  Level FlightAware ADS-B
05:51AM 51.2543 -0.3670 241° Southwest 265 305 9,000  Level FlightAware ADS-B
05:51AM 51.2523 -0.3728 246° West 268 308 9,000  Level FlightAware ADS-B
05:51AM 51.2508 -0.3783 257° West 269 310 9,000  Level FlightAware ADS-B
05:51AM 51.2490 -0.3911 264° West 272 313 9,000  Level FlightAware ADS-B
05:51AM 51.2485 -0.3991 273° West 274 315 9,000  Level FlightAware ADS-B
05:51AM 51.2488 -0.4071 281° West 275 316 9,000  Level FlightAware ADS-B
05:51AM 51.2496 -0.4138 288° West 277 319 9,000  Level FlightAware ADS-B
05:52AM 51.2518 -0.4245 295° West 278 320 9,000  Level FlightAware ADS-B
05:52AM 51.2536 -0.4305 304° West 280 322 9,000  Level FlightAware ADS-B
05:52AM 51.2560 -0.4363 310° West 279 321 9,000  Level FlightAware ADS-B
05:52AM 51.2606 -0.4449 320° Northwest 277 319 9,000  Level FlightAware ADS-B
05:52AM 51.2665 -0.4529 326° Northwest 275 316 9,000  Level FlightAware ADS-B
05:52AM 51.2815 -0.4693 327° Northwest 274 315 9,000  Level FlightAware ADS-B
05:52AM 51.2975 -0.4858 329° Northwest 269 310 9,000  Level FlightAware ADS-B
05:53AM 51.3141 -0.5020 329° Northwest 267 307 9,000  Level FlightAware ADS-B
05:53AM 51.3290 -0.5164 331° Northwest 268 308 9,000  Level FlightAware ADS-B
05:53AM 51.3339 -0.5207 337° Northwest 268 308 9,000  Level FlightAware ADS-B
05:53AM 51.3386 -0.5240 345° North 265 305 9,000  Level FlightAware ADS-B
05:53AM 51.3436 -0.5262 354° North 263 303 9,000  Level FlightAware ADS-B
05:53AM 51.3480 -0.5270 North 260 299 9,000  Level FlightAware ADS-B
05:53AM 51.3524 -0.5268 North 256 295 9,000  Level FlightAware ADS-B
05:53AM 51.3577 -0.5256 14° North 253 291 9,000  Level FlightAware ADS-B
05:53AM 51.3610 -0.5242 23° Northeast 252 290 9,000  Level FlightAware ADS-B
05:53AM 51.3671 -0.5202 30° Northeast 249 287 9,000  Level FlightAware ADS-B
05:53AM 51.3709 -0.5167 36° Northeast 248 285 9,000  Level FlightAware ADS-B
05:53AM 51.3744 -0.5126 45° Northeast 246 283 9,000  Level FlightAware ADS-B
05:54AM 51.3770 -0.5083 49° Northeast 244 281 9,000  Level FlightAware ADS-B
05:54AM 51.3792 -0.5042 54° Northeast 243 280 9,000  Level FlightAware ADS-B
05:54AM 51.3815 -0.4991 61° Northeast 241 277 9,000  Level FlightAware ADS-B
05:54AM 51.3831 -0.4944 69° East 239 275 9,000  Level FlightAware ADS-B
05:54AM 51.3850 -0.4863 77° East 237 273 9,000  Level FlightAware ADS-B
05:54AM 51.3860 -0.4795 83° East 235 270 9,000  Level FlightAware ADS-B
05:54AM 51.3865 -0.4731 90° East 235 270 9,000  Level FlightAware ADS-B
05:54AM 51.3865 -0.4676 94° East 234 269 9,000  Level FlightAware ADS-B
05:54AM 51.3863 -0.4625 104° East 233 268 9,000  Level FlightAware ADS-B
05:54AM 51.3852 -0.4554 108° East 234 269 9,000  Level FlightAware ADS-B
05:54AM 51.3840 -0.4496 120° Southeast 234 269 9,000  Level FlightAware ADS-B
05:54AM 51.3799 -0.4380 128° Southeast 234 269 9,000  Level FlightAware ADS-B
05:54AM 51.3776 -0.4334 137° Southeast 235 270 9,000  Level FlightAware ADS-B
05:54AM 51.3741 -0.4281 142° Southeast 235 270 9,000  Level FlightAware ADS-B
05:54AM 51.3714 -0.4247 148° Southeast 236 272 9,000  Level FlightAware ADS-B
05:55AM 51.3617 -0.4148 145° Southeast 236 272 9,000  Level FlightAware ADS-B
05:55AM 51.3469 -0.3979 147° Southeast 236 272 9,000 -540 Level FlightAware ADS-B
05:55AM 51.3295 -0.3797 148° Southeast 236 272 8,700 -960 Descending FlightAware ADS-B
05:56AM 51.3115 -0.3620 168° South 234 269 8,400 -1,080 Descending FlightAware ADS-B
05:56AM 51.2894 -0.3547 192° South 244 281 8,000 -960 Descending FlightAware ADS-B
05:56AM 51.2853 -0.3561 196° South 246 283 8,000  Level FlightAware ADS-B
05:56AM 51.2811 -0.3580 203° Southwest 248 285 8,000  Level FlightAware ADS-B
05:56AM 51.2752 -0.3620 211° Southwest 252 290 8,000  Level FlightAware ADS-B
05:56AM 51.2720 -0.3650 221° Southwest 254 292 8,000  Level FlightAware ADS-B
05:56AM 51.2641 -0.3759 234° Southwest 260 299 8,000  Level FlightAware ADS-B
05:56AM 51.2608 -0.3831 241° Southwest 263 303 8,000  Level FlightAware ADS-B
05:56AM 51.2586 -0.3895 248° West 265 305 8,000  Level FlightAware ADS-B
05:57AM 51.2566 -0.3976 260° West 268 308 8,000  Level FlightAware ADS-B
05:57AM 51.2551 -0.4110 271° West 270 311 8,000  Level FlightAware ADS-B
05:57AM 51.2552 -0.4179 278° West 271 312 8,000  Level FlightAware ADS-B
05:57AM 51.2562 -0.4287 288° West 271 312 8,000  Level FlightAware ADS-B
05:57AM 51.2578 -0.4364 298° West 271 312 8,000  Level FlightAware ADS-B
05:57AM 51.2611 -0.4465 312° West 269 310 8,000  Level FlightAware ADS-B
05:57AM 51.2691 -0.4605 323° Northwest 265 305 8,000  Level FlightAware ADS-B
05:57AM 51.2732 -0.4654 327° Northwest 263 303 8,000  Level FlightAware ADS-B
05:57AM 51.2889 -0.4818 327° Northwest 262 302 8,000  Level FlightAware ADS-B
05:58AM 51.3046 -0.4982 328° Northwest 261 300 8,000  Level FlightAware ADS-B
05:58AM 51.3204 -0.5140 328° Northwest 259 298 8,000  Level FlightAware ADS-B
05:58AM 51.3332 -0.5266 330° Northwest 259 298 8,000  Level FlightAware ADS-B
05:58AM 51.3378 -0.5308 338° Northwest 257 296 8,000  Level FlightAware ADS-B
05:58AM 51.3433 -0.5343 347° North 255 293 8,000  Level FlightAware ADS-B
05:58AM 51.3479 -0.5360 357° North 250 288 8,000  Level FlightAware ADS-B
05:58AM 51.3533 -0.5365 North 246 283 8,000  Level FlightAware ADS-B
05:59AM 51.3588 -0.5357 11° North 243 280 8,000  Level FlightAware ADS-B
05:59AM 51.3625 -0.5345 17° North 241 277 8,000  Level FlightAware ADS-B
05:59AM 51.3658 -0.5329 22° Northeast 240 276 8,000  Level FlightAware ADS-B
05:59AM 51.3695 -0.5305 29° Northeast 238 274 8,000  Level FlightAware ADS-B
05:59AM 51.3734 -0.5270 37° Northeast 237 273 8,000  Level FlightAware ADS-B
05:59AM 51.3784 -0.5209 47° Northeast 234 269 8,000 -600 Level FlightAware ADS-B
05:59AM 51.3824 -0.5140 62° Northeast 232 267 7,900 -900 Descending FlightAware ADS-B
05:59AM 51.3869 -0.5005 76° East 229 264 7,800 -540 Descending FlightAware ADS-B
05:59AM 51.3877 -0.4956 84° East 228 262 7,800 -900 Level FlightAware ADS-B
05:59AM 51.3882 -0.4884 98° East 227 261 7,700 -1,020 Descending FlightAware ADS-B
05:59AM 51.3871 -0.4755 111° Southeast 227 261 7,600 -1,020 Descending FlightAware ADS-B
05:59AM 51.3855 -0.4687 124° Southeast 228 262 7,500 -960 Descending FlightAware ADS-B
06:00AM 51.3802 -0.4560 138° Southeast 232 267 7,400 -960 Descending FlightAware ADS-B
06:00AM 51.3777 -0.4524 146° Southeast 234 269 7,300 -1,380 Descending FlightAware ADS-B
06:00AM 51.3731 -0.4475 156° South 237 273 7,200 -720 Descending FlightAware ADS-B
06:00AM 51.3691 -0.4446 162° South 240 276 7,200 -900 Level FlightAware ADS-B
06:00AM 51.3659 -0.4430 170° South 243 280 7,100 -1,020 Descending FlightAware ADS-B
06:00AM 51.3617 -0.4418 178° South 246 283 7,100 -900 Level FlightAware ADS-B
06:00AM 51.3575 -0.4415 188° South 250 288 7,000 -540 Descending FlightAware ADS-B
06:00AM 51.3489 -0.4435 200° South 256 295 7,000  Level FlightAware ADS-B
06:00AM 51.3433 -0.4469 209° Southwest 260 299 7,000  Level FlightAware ADS-B
06:00AM 51.3392 -0.4505 215° Southwest 263 303 7,000  Level FlightAware ADS-B
06:00AM 51.3358 -0.4543 228° Southwest 265 305 7,000  Level FlightAware ADS-B
06:00AM 51.3281 -0.4679 239° Southwest 270 311 7,000  Level FlightAware ADS-B
06:01AM 51.3260 -0.4736 248° West 270 311 7,000  Level FlightAware ADS-B
06:01AM 51.3231 -0.4852 258° West 270 311 7,000  Level FlightAware ADS-B
06:01AM 51.3217 -0.4953 269° West 271 312 7,000  Level FlightAware ADS-B
06:01AM 51.3216 -0.5085 280° West 268 308 7,000  Level FlightAware ADS-B
06:01AM 51.3227 -0.5190 290° West 266 306 7,000  Level FlightAware ADS-B
06:01AM 51.3245 -0.5268 297° West 264 304 7,000  Level FlightAware ADS-B
06:01AM 51.3294 -0.5425 294° West 262 302 7,000  Level FlightAware ADS-B
06:01AM 51.3311 -0.5486 290° West 263 303 7,000  Level FlightAware ADS-B
06:01AM 51.3327 -0.5557 290° West 265 305 7,000  Level FlightAware ADS-B
06:02AM 51.3392 -0.5845 290° West 266 306 7,000  Level FlightAware ADS-B
06:02AM 51.3435 -0.6037 287° West 265 305 7,000  Level FlightAware ADS-B
06:02AM 51.3457 -0.6156 281° West 266 306 7,000  Level FlightAware ADS-B
06:02AM 51.3494 -0.6458 282° West 266 306 7,000  Level FlightAware ADS-B
06:02AM 51.3531 -0.6748 281° West 265 305 7,000  Level FlightAware ADS-B
06:03AM 51.3565 -0.7039 280° West 266 306 7,000 -240 Level FlightAware ADS-B
06:03AM 51.3597 -0.7322 280° West 267 307 6,900 -600 Descending FlightAware ADS-B
06:03AM 51.3632 -0.7629 280° West 265 305 6,700 -780 Descending FlightAware ADS-B
06:03AM 51.3666 -0.7936 279° West 263 303 6,500 -780 Descending FlightAware ADS-B
06:04AM 51.3696 -0.8232 279° West 260 299 6,300 -840 Descending FlightAware ADS-B
06:04AM 51.3724 -0.8520 279° West 258 297 6,100 -840 Descending FlightAware ADS-B
06:04AM 51.3738 -0.8661 282° West 257 296 6,000 -960 Descending FlightAware ADS-B
06:04AM 51.3750 -0.8753 287° West 254 292 5,900 -1,200 Descending FlightAware ADS-B
06:04AM 51.3768 -0.8846 293° West 252 290 5,800 -900 Descending FlightAware ADS-B
06:04AM 51.3838 -0.9108 294° West 249 287 5,600 -1,020 Descending FlightAware ADS-B
06:05AM 51.3911 -0.9374 291° West 249 287 5,300 -960 Descending FlightAware ADS-B
06:05AM 51.3924 -0.9428 298° West 249 287 5,300 -720 Level FlightAware ADS-B
06:05AM 51.3955 -0.9520 308° West 246 283 5,200 -1,380 Descending FlightAware ADS-B
06:05AM 51.3979 -0.9570 318° Northwest 243 280 5,100 -1,380 Descending FlightAware ADS-B
06:05AM 51.4026 -0.9638 328° Northwest 238 274 5,000 -1,200 Descending FlightAware ADS-B
06:05AM 51.4066 -0.9678 335° Northwest 234 269 4,900 -780 Descending FlightAware ADS-B
06:05AM 51.4099 -0.9703 344° North 229 264 4,900 -900 Level FlightAware ADS-B
06:05AM 51.4136 -0.9720 348° North 225 259 4,800 -780 Descending FlightAware ADS-B
06:05AM 51.4181 -0.9735 354° North 220 253 4,800 -300 Level FlightAware ADS-B
06:06AM 51.4345 -0.9764 353° North 208 239 4,700 -780 Descending FlightAware ADS-B
06:06AM 51.4491 -0.9794 353° North 203 234 4,400 -1,080 Descending FlightAware ADS-B
06:06AM 51.4607 -0.9818 359° North 195 224 4,200 -1,080 Descending FlightAware ADS-B
06:06AM 51.4649 -0.9819 North 190 219 4,100 -1,140 Descending FlightAware ADS-B
06:06AM 51.4696 -0.9806 21° North 183 211 4,000 -720 Descending FlightAware ADS-B
06:06AM 51.4721 -0.9791 31° Northeast 180 207 4,000 -1,020 Level FlightAware ADS-B
06:06AM 51.4743 -0.9770 38° Northeast 178 205 3,900 -900 Descending FlightAware ADS-B
06:06AM 51.4767 -0.9739 51° Northeast 174 200 3,900 -780 Level FlightAware ADS-B
06:06AM 51.4787 -0.9700 57° Northeast 173 199 3,800 -1,740 Descending FlightAware ADS-B
06:06AM 51.4802 -0.9662 62° Northeast 172 198 3,700 -780 Descending FlightAware ADS-B
06:07AM 51.4818 -0.9615 64° Northeast 171 197 3,700 -900 Level FlightAware ADS-B
06:07AM 51.4871 -0.9441 63° Northeast 169 194 3,400 -1,020 Descending FlightAware ADS-B
06:07AM 51.4927 -0.9266 63° Northeast 169 194 3,200 -960 Descending FlightAware ADS-B
06:07AM 51.4964 -0.9151 67° East 169 194 3,000 -1,320 Descending FlightAware ADS-B
06:07AM 51.4974 -0.9113 70° East 168 193 2,900 -900 Descending FlightAware ADS-B
06:07AM 51.4985 -0.9064 81° East 168 193 2,900  Level FlightAware ADS-B
06:07AM 51.4991 -0.9000 85° East 168 193 2,900  Level FlightAware ADS-B
06:07AM 51.4993 -0.8964 89° East 169 194 2,900  Level FlightAware ADS-B
06:08AM 51.4994 -0.8845 90° East 165 190 2,900  Level FlightAware ADS-B
06:08AM 51.4994 -0.8702 88° East 154 177 2,900  Level FlightAware ADS-B
06:08AM 51.4996 -0.8598 88° East 149 171 2,900  Level FlightAware ADS-B
06:08AM 51.4999 -0.8428 88° East 149 171 2,900  Level FlightAware ADS-B
06:09AM 51.5003 -0.8253 89° East 150 173 2,900  Level FlightAware ADS-B
06:09AM 51.5005 -0.8067 89° East 150 173 2,900 -300 Level FlightAware ADS-B
06:09AM 51.5006 -0.7983 89° East 152 175 2,800 -840 Descending FlightAware ADS-B
06:09AM 51.5008 -0.7822 88° East 151 174 2,600 -780 Descending FlightAware ADS-B
06:09AM 51.5012 -0.7640 89° East 151 174 2,400 -780 Descending FlightAware ADS-B
06:10AM 51.5013 -0.7467 88° East 151 174 2,200 -840 Descending FlightAware ADS-B
06:10AM 51.5017 -0.7299 89° East 151 174 2,000 -840 Descending FlightAware ADS-B
06:10AM 51.5019 -0.7130 88° East 152 175 1,800 -780 Descending FlightAware ADS-B
06:10AM 51.5022 -0.6951 89° East 150 173 1,600 -780 Descending FlightAware ADS-B
06:11AM 51.5023 -0.6789 88° East 153 176 1,400 -840 Descending FlightAware ADS-B
06:11AM 51.5027 -0.6557 89° East 150 173 1,100 -900 Descending FlightAware ADS-B
06:11AM 51.5031 -0.6275 89° East 144 166 700 -960 Descending FlightAware ADS-B